sensor_id;sensor_type;location;lat;lon;timestamp;temperature;humidity
18153;DHT22;9202;51.578;7.734;2023-09-19T00:01:04;16.00;99.90
18153;DHT22;9202;51.578;7.734;2023-09-19T00:03:08;16.10;99.90
18153;DHT22;9202;51.578;7.734;2023-09-19T00:05:11;16.10;99.90
18153;DHT22;9202;51.578;7.734;2023-09-19T00:07:14;16.10;99.90
18153;DHT22;9202;51.578;7.734;2023-09-19T00:09:18;16.10;99.90
18153;DHT22;9202;51.578;7.734;2023-09-19T00:11:20;16.00;99.90
18153;DHT22;9202;51.578;7.734;2023-09-19T00:13:23;16.00;99.90
18153;DHT22;9202;51.578;7.734;2023-09-19T00:15:27;16.00;99.90
18153;DHT22;9202;51.578;7.734;2023-09-19T00:17:30;15.90;99.90
18153;DHT22;9202;51.578;7.734;2023-09-19T00:19:34;15.90;99.90
18153;DHT22;9202;51.578;7.734;2023-09-19T00:21:36;15.90;99.90
18153;DHT22;9202;51.578;7.734;2023-09-19T00:23:39;15.80;99.90
18153;DHT22;9202;51.578;7.734;2023-09-19T00:25:43;15.80;99.90
18153;DHT22;9202;51.578;7.734;2023-09-19T00:27:47;15.70;99.90
18153;DHT22;9202;51.578;7.734;2023-09-19T00:29:52;15.70;99.90
18153;DHT22;9202;51.578;7.734;2023-09-19T00:31:55;15.60;99.90
18153;DHT22;9202;51.578;7.734;2023-09-19T00:33:58;15.60;99.90
18153;DHT22;9202;51.578;7.734;2023-09-19T00:36:03;15.70;99.90
18153;DHT22;9202;51.578;7.734;2023-09-19T00:38:07;15.60;99.90
18153;DHT22;9202;51.578;7.734;2023-09-19T00:40:10;16.30;99.90
18153;DHT22;9202;51.578;7.734;2023-09-19T00:42:18;15.60;99.90
18153;DHT22;9202;51.578;7.734;2023-09-19T00:44:21;15.60;99.90
18153;DHT22;9202;51.578;7.734;2023-09-19T00:46:25;15.50;99.90
18153;DHT22;9202;51.578;7.734;2023-09-19T00:48:28;15.50;99.90
18153;DHT22;9202;51.578;7.734;2023-09-19T00:50:31;15.50;99.90
18153;DHT22;9202;51.578;7.734;2023-09-19T00:52:35;15.50;99.90
18153;DHT22;9202;51.578;7.734;2023-09-19T00:54:38;15.50;99.90
18153;DHT22;9202;51.578;7.734;2023-09-19T00:56:41;15.50;99.90
18153;DHT22;9202;51.578;7.734;2023-09-19T00:58:44;15.40;99.90
18153;DHT22;9202;51.578;7.734;2023-09-19T01:00:47;15.40;99.90
18153;DHT22;9202;51.578;7.734;2023-09-19T01:02:50;15.40;99.90
18153;DHT22;9202;51.578;7.734;2023-09-19T01:04:53;15.40;99.90
18153;DHT22;9202;51.578;7.734;2023-09-19T01:06:56;15.40;99.90
18153;DHT22;9202;51.578;7.734;2023-09-19T01:09:00;15.40;99.90
18153;DHT22;9202;51.578;7.734;2023-09-19T01:11:09;15.40;99.90
18153;DHT22;9202;51.578;7.734;2023-09-19T01:13:13;15.40;99.90
18153;DHT22;9202;51.578;7.734;2023-09-19T01:15:19;15.40;99.90
18153;DHT22;9202;51.578;7.734;2023-09-19T01:17:24;15.40;99.90
18153;DHT22;9202;51.578;7.734;2023-09-19T01:19:42;15.30;99.90
18153;DHT22;9202;51.578;7.734;2023-09-19T01:21:42;15.30;99.90
18153;DHT22;9202;51.578;7.734;2023-09-19T01:24:03;15.30;99.90
18153;DHT22;9202;51.578;7.734;2023-09-19T01:26:07;15.30;99.90
18153;DHT22;9202;51.578;7.734;2023-09-19T01:28:22;15.30;99.90
18153;DHT22;9202;51.578;7.734;2023-09-19T01:30:26;15.20;99.90
18153;DHT22;9202;51.578;7.734;2023-09-19T01:32:31;15.30;99.90
18153;DHT22;9202;51.578;7.734;2023-09-19T01:34:44;15.30;99.90
18153;DHT22;9202;51.578;7.734;2023-09-19T01:36:49;15.20;99.90
18153;DHT22;9202;51.578;7.734;2023-09-19T01:38:51;15.20;99.90
18153;DHT22;9202;51.578;7.734;2023-09-19T01:40:57;15.20;99.90
18153;DHT22;9202;51.578;7.734;2023-09-19T04:30:23;15.80;99.90
18153;DHT22;9202;51.578;7.734;2023-09-19T04:32:27;14.40;99.90
18153;DHT22;9202;51.578;7.734;2023-09-19T04:34:30;14.30;99.90
18153;DHT22;9202;51.578;7.734;2023-09-19T04:36:33;14.40;99.90
18153;DHT22;9202;51.578;7.734;2023-09-19T04:38:38;14.40;99.90
18153;DHT22;9202;51.578;7.734;2023-09-19T04:40:40;14.40;99.90
18153;DHT22;9202;51.578;7.734;2023-09-19T04:42:43;14.30;99.90
18153;DHT22;9202;51.578;7.734;2023-09-19T04:44:46;14.30;99.90
18153;DHT22;9202;51.578;7.734;2023-09-19T04:46:50;14.30;99.90
18153;DHT22;9202;51.578;7.734;2023-09-19T04:49:00;14.40;99.90
18153;DHT22;9202;51.578;7.734;2023-09-19T04:51:04;14.30;99.90
18153;DHT22;9202;51.578;7.734;2023-09-19T04:53:07;14.30;99.90
18153;DHT22;9202;51.578;7.734;2023-09-19T04:55:09;14.20;99.90
18153;DHT22;9202;51.578;7.734;2023-09-19T04:57:12;14.20;99.90
18153;DHT22;9202;51.578;7.734;2023-09-19T04:59:15;14.20;99.90
18153;DHT22;9202;51.578;7.734;2023-09-19T05:01:18;14.20;99.90
18153;DHT22;9202;51.578;7.734;2023-09-19T05:03:20;14.20;99.90
18153;DHT22;9202;51.578;7.734;2023-09-19T05:05:24;14.20;99.90
18153;DHT22;9202;51.578;7.734;2023-09-19T05:07:27;14.20;99.90
18153;DHT22;9202;51.578;7.734;2023-09-19T05:09:30;13.80;99.90
18153;DHT22;9202;51.578;7.734;2023-09-19T05:25:40;14.20;99.90
18153;DHT22;9202;51.578;7.734;2023-09-19T05:27:45;14.30;99.90
18153;DHT22;9202;51.578;7.734;2023-09-19T05:29:47;14.30;99.90
18153;DHT22;9202;51.578;7.734;2023-09-19T05:34:10;14.20;99.90
18153;DHT22;9202;51.578;7.734;2023-09-19T05:36:13;14.40;99.90
18153;DHT22;9202;51.578;7.734;2023-09-19T05:38:17;14.30;99.90
18153;DHT22;9202;51.578;7.734;2023-09-19T05:40:22;14.30;99.90
18153;DHT22;9202;51.578;7.734;2023-09-19T05:42:25;14.30;99.90
18153;DHT22;9202;51.578;7.734;2023-09-19T05:44:28;14.30;99.90
18153;DHT22;9202;51.578;7.734;2023-09-19T05:46:30;14.40;99.90
18153;DHT22;9202;51.578;7.734;2023-09-19T05:48:33;14.30;99.90
18153;DHT22;9202;51.578;7.734;2023-09-19T05:50:36;14.30;99.90
18153;DHT22;9202;51.578;7.734;2023-09-19T05:52:39;14.40;99.90
18153;DHT22;9202;51.578;7.734;2023-09-19T05:54:42;14.40;99.90
18153;DHT22;9202;51.578;7.734;2023-09-19T05:56:45;14.40;99.90
18153;DHT22;9202;51.578;7.734;2023-09-19T05:58:48;14.40;99.90
18153;DHT22;9202;51.578;7.734;2023-09-19T06:00:53;14.50;99.90
18153;DHT22;9202;51.578;7.734;2023-09-19T06:02:56;14.50;99.90
18153;DHT22;9202;51.578;7.734;2023-09-19T06:04:59;14.50;99.90
18153;DHT22;9202;51.578;7.734;2023-09-19T06:07:02;14.60;99.90
18153;DHT22;9202;51.578;7.734;2023-09-19T06:09:05;14.50;99.90
18153;DHT22;9202;51.578;7.734;2023-09-19T06:11:08;14.60;99.90
18153;DHT22;9202;51.578;7.734;2023-09-19T06:13:11;14.60;99.90
18153;DHT22;9202;51.578;7.734;2023-09-19T06:15:14;14.60;99.90
18153;DHT22;9202;51.578;7.734;2023-09-19T06:17:17;14.60;99.90
18153;DHT22;9202;51.578;7.734;2023-09-19T06:19:21;14.70;99.90
18153;DHT22;9202;51.578;7.734;2023-09-19T06:21:27;14.70;99.90
18153;DHT22;9202;51.578;7.734;2023-09-19T06:23:29;14.70;99.90
18153;DHT22;9202;51.578;7.734;2023-09-19T06:25:32;14.70;99.90
18153;DHT22;9202;51.578;7.734;2023-09-19T06:27:34;14.70;99.90
18153;DHT22;9202;51.578;7.734;2023-09-19T06:29:38;14.70;99.90
18153;DHT22;9202;51.578;7.734;2023-09-19T06:31:41;14.80;99.90
18153;DHT22;9202;51.578;7.734;2023-09-19T06:33:44;14.80;99.90
18153;DHT22;9202;51.578;7.734;2023-09-19T06:35:47;14.90;99.90
18153;DHT22;9202;51.578;7.734;2023-09-19T06:37:50;14.90;99.90
18153;DHT22;9202;51.578;7.734;2023-09-19T06:39:53;14.90;99.90
18153;DHT22;9202;51.578;7.734;2023-09-19T06:41:55;14.90;99.90
18153;DHT22;9202;51.578;7.734;2023-09-19T06:43:58;14.90;99.90
18153;DHT22;9202;51.578;7.734;2023-09-19T06:46:01;15.00;99.90
18153;DHT22;9202;51.578;7.734;2023-09-19T06:48:04;15.00;99.90
18153;DHT22;9202;51.578;7.734;2023-09-19T06:50:07;15.00;99.90
18153;DHT22;9202;51.578;7.734;2023-09-19T06:52:13;15.00;99.90
18153;DHT22;9202;51.578;7.734;2023-09-19T06:54:16;15.00;99.90
18153;DHT22;9202;51.578;7.734;2023-09-19T06:56:20;15.10;99.90
18153;DHT22;9202;51.578;7.734;2023-09-19T06:58:24;15.10;99.90
18153;DHT22;9202;51.578;7.734;2023-09-19T07:00:27;15.10;99.90
18153;DHT22;9202;51.578;7.734;2023-09-19T07:02:30;15.10;99.90
18153;DHT22;9202;51.578;7.734;2023-09-19T07:04:33;15.20;99.90
18153;DHT22;9202;51.578;7.734;2023-09-19T07:06:35;15.30;99.90
18153;DHT22;9202;51.578;7.734;2023-09-19T07:08:38;15.20;99.90
18153;DHT22;9202;51.578;7.734;2023-09-19T07:10:41;15.30;99.90
18153;DHT22;9202;51.578;7.734;2023-09-19T07:12:47;15.30;99.90
18153;DHT22;9202;51.578;7.734;2023-09-19T07:14:50;15.30;99.90
18153;DHT22;9202;51.578;7.734;2023-09-19T07:16:52;15.30;99.90
18153;DHT22;9202;51.578;7.734;2023-09-19T07:18:56;15.40;99.90
18153;DHT22;9202;51.578;7.734;2023-09-19T07:20:59;15.40;99.90
18153;DHT22;9202;51.578;7.734;2023-09-19T07:23:05;15.40;99.90
18153;DHT22;9202;51.578;7.734;2023-09-19T07:25:08;15.40;99.90
18153;DHT22;9202;51.578;7.734;2023-09-19T07:27:10;15.40;99.90
18153;DHT22;9202;51.578;7.734;2023-09-19T07:29:13;15.40;99.90
18153;DHT22;9202;51.578;7.734;2023-09-19T07:31:16;15.50;99.90
18153;DHT22;9202;51.578;7.734;2023-09-19T07:33:19;15.50;99.90
18153;DHT22;9202;51.578;7.734;2023-09-19T07:35:21;15.60;99.90
18153;DHT22;9202;51.578;7.734;2023-09-19T07:37:24;15.60;99.90
18153;DHT22;9202;51.578;7.734;2023-09-19T07:39:28;15.60;99.90
18153;DHT22;9202;51.578;7.734;2023-09-19T07:41:31;15.70;99.90
18153;DHT22;9202;51.578;7.734;2023-09-19T07:43:34;15.70;99.90
18153;DHT22;9202;51.578;7.734;2023-09-19T07:45:36;15.60;99.90
18153;DHT22;9202;51.578;7.734;2023-09-19T07:47:39;15.70;99.90
18153;DHT22;9202;51.578;7.734;2023-09-19T07:49:42;15.80;99.90
18153;DHT22;9202;51.578;7.734;2023-09-19T07:51:45;15.80;99.90
18153;DHT22;9202;51.578;7.734;2023-09-19T07:53:48;15.90;99.90
18153;DHT22;9202;51.578;7.734;2023-09-19T07:55:51;15.80;99.90
18153;DHT22;9202;51.578;7.734;2023-09-19T07:57:55;15.90;99.90
18153;DHT22;9202;51.578;7.734;2023-09-19T07:59:59;16.00;99.90
18153;DHT22;9202;51.578;7.734;2023-09-19T08:02:01;15.90;99.90
18153;DHT22;9202;51.578;7.734;2023-09-19T08:04:06;16.00;99.90
18153;DHT22;9202;51.578;7.734;2023-09-19T08:06:09;16.00;99.90
18153;DHT22;9202;51.578;7.734;2023-09-19T08:08:12;16.00;99.90
18153;DHT22;9202;51.578;7.734;2023-09-19T08:10:16;16.10;99.90
18153;DHT22;9202;51.578;7.734;2023-09-19T08:12:21;16.10;99.90
18153;DHT22;9202;51.578;7.734;2023-09-19T08:14:25;16.10;99.90
18153;DHT22;9202;51.578;7.734;2023-09-19T08:16:28;16.10;99.90
18153;DHT22;9202;51.578;7.734;2023-09-19T08:18:31;16.20;99.90
18153;DHT22;9202;51.578;7.734;2023-09-19T08:20:34;16.20;99.90
18153;DHT22;9202;51.578;7.734;2023-09-19T08:22:37;16.20;99.90
18153;DHT22;9202;51.578;7.734;2023-09-19T08:24:40;16.20;99.90
18153;DHT22;9202;51.578;7.734;2023-09-19T08:26:44;16.30;99.90
18153;DHT22;9202;51.578;7.734;2023-09-19T08:28:48;16.30;99.90
18153;DHT22;9202;51.578;7.734;2023-09-19T08:30:52;16.30;99.90
18153;DHT22;9202;51.578;7.734;2023-09-19T08:32:57;16.40;99.90
18153;DHT22;9202;51.578;7.734;2023-09-19T08:35:00;16.50;99.90
18153;DHT22;9202;51.578;7.734;2023-09-19T08:37:03;16.50;99.90
18153;DHT22;9202;51.578;7.734;2023-09-19T08:41:34;16.70;99.90
18153;DHT22;9202;51.578;7.734;2023-09-19T08:43:36;16.70;99.90
18153;DHT22;9202;51.578;7.734;2023-09-19T08:45:40;16.70;99.90
18153;DHT22;9202;51.578;7.734;2023-09-19T08:47:44;16.70;99.90
18153;DHT22;9202;51.578;7.734;2023-09-19T08:49:50;16.70;99.90
18153;DHT22;9202;51.578;7.734;2023-09-19T08:51:54;16.80;99.90
18153;DHT22;9202;51.578;7.734;2023-09-19T08:54:00;16.70;99.90
18153;DHT22;9202;51.578;7.734;2023-09-19T08:56:03;16.70;99.90
18153;DHT22;9202;51.578;7.734;2023-09-19T08:58:10;16.70;99.90
18153;DHT22;9202;51.578;7.734;2023-09-19T09:00:13;16.70;99.90
18153;DHT22;9202;51.578;7.734;2023-09-19T09:02:16;16.70;99.90
18153;DHT22;9202;51.578;7.734;2023-09-19T09:04:21;16.80;99.90
18153;DHT22;9202;51.578;7.734;2023-09-19T09:06:24;16.80;99.90
18153;DHT22;9202;51.578;7.734;2023-09-19T09:08:27;16.90;99.90
18153;DHT22;9202;51.578;7.734;2023-09-19T09:10:31;16.90;99.90
18153;DHT22;9202;51.578;7.734;2023-09-19T09:12:33;17.00;99.90
18153;DHT22;9202;51.578;7.734;2023-09-19T09:14:38;17.00;99.90
18153;DHT22;9202;51.578;7.734;2023-09-19T09:16:41;17.10;99.90
18153;DHT22;9202;51.578;7.734;2023-09-19T09:18:43;17.00;99.90
18153;DHT22;9202;51.578;7.734;2023-09-19T09:20:47;17.10;99.90
18153;DHT22;9202;51.578;7.734;2023-09-19T09:22:51;17.10;99.90
18153;DHT22;9202;51.578;7.734;2023-09-19T09:24:56;17.10;99.90
18153;DHT22;9202;51.578;7.734;2023-09-19T09:27:00;17.10;99.90
18153;DHT22;9202;51.578;7.734;2023-09-19T09:29:05;17.10;99.90
18153;DHT22;9202;51.578;7.734;2023-09-19T09:31:11;17.20;99.90
18153;DHT22;9202;51.578;7.734;2023-09-19T09:33:14;17.30;99.90
18153;DHT22;9202;51.578;7.734;2023-09-19T09:35:18;17.40;99.90
18153;DHT22;9202;51.578;7.734;2023-09-19T09:37:22;17.50;99.90
18153;DHT22;9202;51.578;7.734;2023-09-19T09:39:30;17.40;99.90
18153;DHT22;9202;51.578;7.734;2023-09-19T09:41:36;17.50;99.90
18153;DHT22;9202;51.578;7.734;2023-09-19T09:43:39;17.40;99.90
18153;DHT22;9202;51.578;7.734;2023-09-19T09:45:44;17.40;99.90
18153;DHT22;9202;51.578;7.734;2023-09-19T09:47:49;17.40;99.90
18153;DHT22;9202;51.578;7.734;2023-09-19T09:49:57;17.50;99.90
18153;DHT22;9202;51.578;7.734;2023-09-19T09:52:03;17.60;99.90
18153;DHT22;9202;51.578;7.734;2023-09-19T09:54:11;17.70;99.90
18153;DHT22;9202;51.578;7.734;2023-09-19T09:56:14;17.70;99.90
18153;DHT22;9202;51.578;7.734;2023-09-19T09:58:18;17.90;99.90
18153;DHT22;9202;51.578;7.734;2023-09-19T10:00:22;17.90;99.90
18153;DHT22;9202;51.578;7.734;2023-09-19T10:02:26;17.90;99.90
18153;DHT22;9202;51.578;7.734;2023-09-19T10:04:30;18.10;99.90
18153;DHT22;9202;51.578;7.734;2023-09-19T10:06:40;18.20;99.90
18153;DHT22;9202;51.578;7.734;2023-09-19T10:08:57;18.20;99.90
18153;DHT22;9202;51.578;7.734;2023-09-19T10:11:15;18.20;99.90
18153;DHT22;9202;51.578;7.734;2023-09-19T10:13:19;18.20;99.90
18153;DHT22;9202;51.578;7.734;2023-09-19T10:15:23;18.10;99.90
18153;DHT22;9202;51.578;7.734;2023-09-19T10:17:28;18.10;99.90
18153;DHT22;9202;51.578;7.734;2023-09-19T10:19:36;18.10;99.90
18153;DHT22;9202;51.578;7.734;2023-09-19T10:21:38;18.00;99.90
18153;DHT22;9202;51.578;7.734;2023-09-19T10:23:42;17.90;99.90
18153;DHT22;9202;51.578;7.734;2023-09-19T10:25:47;18.10;99.90
18153;DHT22;9202;51.578;7.734;2023-09-19T10:27:50;18.20;99.90
18153;DHT22;9202;51.578;7.734;2023-09-19T10:29:54;18.20;99.90
18153;DHT22;9202;51.578;7.734;2023-09-19T10:31:57;18.40;99.90
18153;DHT22;9202;51.578;7.734;2023-09-19T10:34:01;18.50;99.90
18153;DHT22;9202;51.578;7.734;2023-09-19T10:36:05;18.70;99.90
18153;DHT22;9202;51.578;7.734;2023-09-19T10:38:09;18.60;99.90
18153;DHT22;9202;51.578;7.734;2023-09-19T10:40:12;18.60;99.90
18153;DHT22;9202;51.578;7.734;2023-09-19T10:42:18;18.40;99.90
18153;DHT22;9202;51.578;7.734;2023-09-19T10:44:23;18.40;99.90
18153;DHT22;9202;51.578;7.734;2023-09-19T10:46:26;18.40;99.90
18153;DHT22;9202;51.578;7.734;2023-09-19T10:48:30;18.50;99.90
18153;DHT22;9202;51.578;7.734;2023-09-19T10:50:35;18.60;99.90
18153;DHT22;9202;51.578;7.734;2023-09-19T10:52:39;18.50;99.90
18153;DHT22;9202;51.578;7.734;2023-09-19T10:54:43;18.40;99.90
18153;DHT22;9202;51.578;7.734;2023-09-19T10:56:48;18.30;99.90
18153;DHT22;9202;51.578;7.734;2023-09-19T10:58:53;18.50;99.90
18153;DHT22;9202;51.578;7.734;2023-09-19T11:00:58;18.70;99.90
18153;DHT22;9202;51.578;7.734;2023-09-19T11:03:17;18.80;99.90
18153;DHT22;9202;51.578;7.734;2023-09-19T11:05:21;19.00;99.90
18153;DHT22;9202;51.578;7.734;2023-09-19T11:07:25;19.00;99.90
18153;DHT22;9202;51.578;7.734;2023-09-19T11:09:37;19.20;99.90
18153;DHT22;9202;51.578;7.734;2023-09-19T11:11:42;19.10;99.90
18153;DHT22;9202;51.578;7.734;2023-09-19T11:13:45;19.10;99.90
18153;DHT22;9202;51.578;7.734;2023-09-19T11:20:42;19.00;99.90
18153;DHT22;9202;51.578;7.734;2023-09-19T11:27:28;18.60;99.90
18153;DHT22;9202;51.578;7.734;2023-09-19T11:29:31;18.60;99.90
18153;DHT22;9202;51.578;7.734;2023-09-19T11:36:26;18.70;99.90
18153;DHT22;9202;51.578;7.734;2023-09-19T11:43:30;19.00;99.90
18153;DHT22;9202;51.578;7.734;2023-09-19T11:50:30;19.50;99.90
18153;DHT22;9202;51.578;7.734;2023-09-19T11:52:34;19.60;99.90
18153;DHT22;9202;51.578;7.734;2023-09-19T11:54:39;19.70;99.90
18153;DHT22;9202;51.578;7.734;2023-09-19T11:56:43;19.80;99.90
18153;DHT22;9202;51.578;7.734;2023-09-19T11:58:47;19.80;99.90
18153;DHT22;9202;51.578;7.734;2023-09-19T12:00:54;19.80;99.90
18153;DHT22;9202;51.578;7.734;2023-09-19T12:02:59;19.90;99.90
18153;DHT22;9202;51.578;7.734;2023-09-19T12:05:04;20.00;99.90
18153;DHT22;9202;51.578;7.734;2023-09-19T12:07:08;20.10;99.90
18153;DHT22;9202;51.578;7.734;2023-09-19T12:09:14;20.30;99.90
18153;DHT22;9202;51.578;7.734;2023-09-19T12:11:18;20.30;99.90
18153;DHT22;9202;51.578;7.734;2023-09-19T12:13:22;20.30;99.90
18153;DHT22;9202;51.578;7.734;2023-09-19T12:15:25;20.10;99.90
18153;DHT22;9202;51.578;7.734;2023-09-19T12:17:35;20.20;99.90
18153;DHT22;9202;51.578;7.734;2023-09-19T12:19:38;20.30;99.90
18153;DHT22;9202;51.578;7.734;2023-09-19T12:21:41;20.30;99.90
18153;DHT22;9202;51.578;7.734;2023-09-19T12:23:43;20.30;99.90
18153;DHT22;9202;51.578;7.734;2023-09-19T12:25:46;20.40;99.90
18153;DHT22;9202;51.578;7.734;2023-09-19T12:27:52;20.40;99.90
18153;DHT22;9202;51.578;7.734;2023-09-19T12:30:18;20.30;99.90
18153;DHT22;9202;51.578;7.734;2023-09-19T12:35:48;20.00;99.90
18153;DHT22;9202;51.578;7.734;2023-09-19T12:38:07;20.10;99.90
18153;DHT22;9202;51.578;7.734;2023-09-19T12:40:18;20.00;99.90
18153;DHT22;9202;51.578;7.734;2023-09-19T12:42:37;19.90;99.90
18153;DHT22;9202;51.578;7.734;2023-09-19T12:47:17;20.00;99.90
18153;DHT22;9202;51.578;7.734;2023-09-19T12:49:23;19.90;99.90
18153;DHT22;9202;51.578;7.734;2023-09-19T12:51:37;20.00;99.90
18153;DHT22;9202;51.578;7.734;2023-09-19T12:54:09;20.10;99.90
18153;DHT22;9202;51.578;7.734;2023-09-19T12:59:16;20.30;99.90
18153;DHT22;9202;51.578;7.734;2023-09-19T13:01:28;20.40;99.90
18153;DHT22;9202;51.578;7.734;2023-09-19T13:03:34;20.40;99.90
18153;DHT22;9202;51.578;7.734;2023-09-19T13:05:49;20.50;99.90
18153;DHT22;9202;51.578;7.734;2023-09-19T13:07:57;20.50;99.90
18153;DHT22;9202;51.578;7.734;2023-09-19T13:10:04;20.50;99.90
18153;DHT22;9202;51.578;7.734;2023-09-19T13:14:44;20.70;99.90
18153;DHT22;9202;51.578;7.734;2023-09-19T13:16:57;20.80;99.90
18153;DHT22;9202;51.578;7.734;2023-09-19T13:19:07;20.80;99.90
18153;DHT22;9202;51.578;7.734;2023-09-19T13:21:28;20.70;99.90
18153;DHT22;9202;51.578;7.734;2023-09-19T13:23:39;20.80;99.90
18153;DHT22;9202;51.578;7.734;2023-09-19T13:25:43;20.90;99.90
18153;DHT22;9202;51.578;7.734;2023-09-19T13:27:48;20.90;99.90
18153;DHT22;9202;51.578;7.734;2023-09-19T13:29:52;20.90;99.90
18153;DHT22;9202;51.578;7.734;2023-09-19T13:31:55;21.00;99.90
18153;DHT22;9202;51.578;7.734;2023-09-19T13:34:01;21.00;99.90
18153;DHT22;9202;51.578;7.734;2023-09-19T13:36:08;20.90;99.90
18153;DHT22;9202;51.578;7.734;2023-09-19T13:38:13;21.00;99.90
18153;DHT22;9202;51.578;7.734;2023-09-19T13:40:18;21.00;99.90
18153;DHT22;9202;51.578;7.734;2023-09-19T13:42:24;21.00;99.90
18153;DHT22;9202;51.578;7.734;2023-09-19T13:44:30;21.10;99.90
18153;DHT22;9202;51.578;7.734;2023-09-19T13:46:33;21.20;99.90
18153;DHT22;9202;51.578;7.734;2023-09-19T13:48:37;21.20;99.90
18153;DHT22;9202;51.578;7.734;2023-09-19T13:50:41;21.30;99.90
18153;DHT22;9202;51.578;7.734;2023-09-19T13:53:03;21.30;99.90
18153;DHT22;9202;51.578;7.734;2023-09-19T13:55:36;21.40;99.90
18153;DHT22;9202;51.578;7.734;2023-09-19T13:57:53;21.40;99.90
18153;DHT22;9202;51.578;7.734;2023-09-19T14:03:41;21.40;99.90
18153;DHT22;9202;51.578;7.734;2023-09-19T14:08:39;21.30;99.90
18153;DHT22;9202;51.578;7.734;2023-09-19T14:11:01;21.20;99.90
18153;DHT22;9202;51.578;7.734;2023-09-19T14:13:19;21.20;99.90
18153;DHT22;9202;51.578;7.734;2023-09-19T14:15:46;21.30;99.90
18153;DHT22;9202;51.578;7.734;2023-09-19T14:17:59;21.20;99.90
18153;DHT22;9202;51.578;7.734;2023-09-19T14:20:09;21.80;99.90
18153;DHT22;9202;51.578;7.734;2023-09-19T14:22:16;21.30;99.90
18153;DHT22;9202;51.578;7.734;2023-09-19T14:24:22;21.30;99.90
18153;DHT22;9202;51.578;7.734;2023-09-19T14:26:25;21.10;99.90
18153;DHT22;9202;51.578;7.734;2023-09-19T14:28:27;21.00;99.90
18153;DHT22;9202;51.578;7.734;2023-09-19T14:30:32;21.00;99.90
18153;DHT22;9202;51.578;7.734;2023-09-19T14:32:34;20.90;99.90
18153;DHT22;9202;51.578;7.734;2023-09-19T14:34:37;20.80;99.90
18153;DHT22;9202;51.578;7.734;2023-09-19T14:36:42;20.70;99.90
18153;DHT22;9202;51.578;7.734;2023-09-19T14:38:45;20.70;99.90
18153;DHT22;9202;51.578;7.734;2023-09-19T14:40:47;20.70;99.90
18153;DHT22;9202;51.578;7.734;2023-09-19T14:42:52;20.80;99.90
18153;DHT22;9202;51.578;7.734;2023-09-19T14:44:54;20.60;99.90
18153;DHT22;9202;51.578;7.734;2023-09-19T14:46:57;20.60;99.90
18153;DHT22;9202;51.578;7.734;2023-09-19T14:49:00;20.40;99.90
18153;DHT22;9202;51.578;7.734;2023-09-19T14:51:05;20.80;99.90
18153;DHT22;9202;51.578;7.734;2023-09-19T14:53:08;20.80;99.90
18153;DHT22;9202;51.578;7.734;2023-09-19T14:55:12;20.70;99.90
18153;DHT22;9202;51.578;7.734;2023-09-19T14:57:17;20.60;99.90
18153;DHT22;9202;51.578;7.734;2023-09-19T14:59:19;20.60;99.90
18153;DHT22;9202;51.578;7.734;2023-09-19T15:01:22;20.60;99.90
18153;DHT22;9202;51.578;7.734;2023-09-19T15:03:25;20.50;99.90
18153;DHT22;9202;51.578;7.734;2023-09-19T15:05:28;20.50;99.90
18153;DHT22;9202;51.578;7.734;2023-09-19T15:07:32;20.40;99.90
18153;DHT22;9202;51.578;7.734;2023-09-19T15:09:35;20.40;99.90
18153;DHT22;9202;51.578;7.734;2023-09-19T15:11:37;20.40;99.90
18153;DHT22;9202;51.578;7.734;2023-09-19T15:13:40;20.30;99.90
18153;DHT22;9202;51.578;7.734;2023-09-19T15:15:43;20.20;99.90
18153;DHT22;9202;51.578;7.734;2023-09-19T15:17:48;20.10;99.90
18153;DHT22;9202;51.578;7.734;2023-09-19T15:19:51;20.10;99.90
18153;DHT22;9202;51.578;7.734;2023-09-19T15:21:54;20.00;99.90
18153;DHT22;9202;51.578;7.734;2023-09-19T15:23:57;20.00;99.90
18153;DHT22;9202;51.578;7.734;2023-09-19T15:26:02;20.00;99.90
18153;DHT22;9202;51.578;7.734;2023-09-19T15:28:05;20.00;99.90
18153;DHT22;9202;51.578;7.734;2023-09-19T15:30:10;20.00;99.90
18153;DHT22;9202;51.578;7.734;2023-09-19T15:32:14;20.00;99.90
18153;DHT22;9202;51.578;7.734;2023-09-19T15:34:24;20.00;99.90
18153;DHT22;9202;51.578;7.734;2023-09-19T15:36:28;20.10;99.90
18153;DHT22;9202;51.578;7.734;2023-09-19T15:40:37;20.30;99.90
18153;DHT22;9202;51.578;7.734;2023-09-19T15:42:43;20.30;99.90
18153;DHT22;9202;51.578;7.734;2023-09-19T15:44:46;20.30;99.90
18153;DHT22;9202;51.578;7.734;2023-09-19T15:46:51;20.30;99.90
18153;DHT22;9202;51.578;7.734;2023-09-19T15:48:54;20.20;99.90
18153;DHT22;9202;51.578;7.734;2023-09-19T15:50:57;20.10;99.90
18153;DHT22;9202;51.578;7.734;2023-09-19T15:53:01;20.00;99.90
18153;DHT22;9202;51.578;7.734;2023-09-19T15:55:07;19.90;99.90
18153;DHT22;9202;51.578;7.734;2023-09-19T15:57:10;19.90;99.90
18153;DHT22;9202;51.578;7.734;2023-09-19T15:59:14;19.70;99.90
18153;DHT22;9202;51.578;7.734;2023-09-19T16:01:17;19.70;99.90
18153;DHT22;9202;51.578;7.734;2023-09-19T16:03:25;19.70;99.90
18153;DHT22;9202;51.578;7.734;2023-09-19T16:05:35;19.60;99.90
18153;DHT22;9202;51.578;7.734;2023-09-19T16:07:38;19.60;99.90
18153;DHT22;9202;51.578;7.734;2023-09-19T16:09:43;19.60;99.90
18153;DHT22;9202;51.578;7.734;2023-09-19T16:11:45;20.30;99.90
18153;DHT22;9202;51.578;7.734;2023-09-19T16:13:49;19.60;99.90
18153;DHT22;9202;51.578;7.734;2023-09-19T16:15:52;19.60;99.90
18153;DHT22;9202;51.578;7.734;2023-09-19T16:17:55;19.70;99.90
18153;DHT22;9202;51.578;7.734;2023-09-19T16:19:58;19.60;99.90
18153;DHT22;9202;51.578;7.734;2023-09-19T16:22:01;19.70;99.90
18153;DHT22;9202;51.578;7.734;2023-09-19T16:24:06;19.70;99.90
18153;DHT22;9202;51.578;7.734;2023-09-19T16:26:11;19.70;99.90
18153;DHT22;9202;51.578;7.734;2023-09-19T16:28:16;19.70;99.90
18153;DHT22;9202;51.578;7.734;2023-09-19T16:30:19;19.70;99.90
18153;DHT22;9202;51.578;7.734;2023-09-19T16:32:22;19.70;99.90
18153;DHT22;9202;51.578;7.734;2023-09-19T16:34:26;19.60;99.90
18153;DHT22;9202;51.578;7.734;2023-09-19T16:36:29;19.60;99.90
18153;DHT22;9202;51.578;7.734;2023-09-19T16:38:34;19.50;99.90
18153;DHT22;9202;51.578;7.734;2023-09-19T16:40:38;19.50;99.90
18153;DHT22;9202;51.578;7.734;2023-09-19T16:42:44;19.50;99.90
18153;DHT22;9202;51.578;7.734;2023-09-19T16:44:47;19.50;99.90
18153;DHT22;9202;51.578;7.734;2023-09-19T16:46:50;19.40;99.90
18153;DHT22;9202;51.578;7.734;2023-09-19T16:48:54;19.40;99.90
18153;DHT22;9202;51.578;7.734;2023-09-19T16:50:59;19.40;99.90
18153;DHT22;9202;51.578;7.734;2023-09-19T16:53:04;19.30;99.90
18153;DHT22;9202;51.578;7.734;2023-09-19T16:55:08;19.30;99.90
18153;DHT22;9202;51.578;7.734;2023-09-19T16:57:11;19.30;99.90
18153;DHT22;9202;51.578;7.734;2023-09-19T16:59:13;19.30;99.90
18153;DHT22;9202;51.578;7.734;2023-09-19T17:01:17;19.20;99.90
18153;DHT22;9202;51.578;7.734;2023-09-19T17:03:22;19.20;99.90
18153;DHT22;9202;51.578;7.734;2023-09-19T17:05:25;19.20;99.90
18153;DHT22;9202;51.578;7.734;2023-09-19T17:07:28;19.20;99.90
18153;DHT22;9202;51.578;7.734;2023-09-19T17:09:31;19.20;99.90
18153;DHT22;9202;51.578;7.734;2023-09-19T17:11:34;19.20;99.90